createdAt,value
2018-09-09T00:02:01.324Z,12.5
2018-09-09T00:07:01.483Z,12.0
2018-09-09T00:12:01.328Z,12.0
2018-09-09T00:17:01.467Z,11.7
2018-09-09T00:22:06.408Z,11.3
2018-09-09T00:27:06.422Z,11.8
2018-09-09T00:32:01.417Z,11.7
2018-09-09T00:42:01.518Z,11.7
2018-09-09T00:47:01.470Z,11.5
2018-09-09T00:52:06.396Z,11.3
2018-09-09T00:57:06.394Z,11.4
2018-09-09T01:02:01.358Z,10.9
2018-09-09T01:07:01.517Z,10.4
2018-09-09T01:12:06.394Z,10.2
2018-09-09T01:17:06.531Z,9.4
2018-09-09T01:22:01.442Z,8.5
2018-09-09T01:27:01.491Z,7.8
2018-09-09T01:32:01.393Z,7.3
2018-09-09T01:37:01.554Z,6.8
2018-09-09T01:42:01.414Z,7.0
2018-09-09T01:47:06.383Z,7.2
2018-09-09T01:52:01.418Z,7.2
2018-09-09T01:57:06.391Z,7.3
2018-09-09T02:02:06.367Z,7.5
2018-09-09T02:07:01.458Z,7.6
2018-09-09T02:12:01.387Z,7.4
2018-09-09T02:17:01.448Z,7.4
2018-09-09T02:22:01.399Z,7.8
2018-09-09T02:27:01.531Z,8.2
2018-09-09T02:37:01.441Z,8.2
2018-09-09T02:42:01.375Z,8.0
2018-09-09T02:47:01.445Z,7.8
2018-09-09T02:52:01.385Z,7.5
2018-09-09T02:57:01.443Z,8.1
2018-09-09T03:02:01.419Z,8.9
2018-09-09T03:07:01.419Z,9.7
2018-09-09T03:12:01.420Z,10.0
2018-09-09T03:17:01.423Z,9.9
2018-09-09T03:27:01.474Z,9.1
2018-09-09T03:32:01.355Z,9.4
2018-09-09T03:37:01.515Z,9.6
2018-09-09T03:42:01.384Z,10.3
2018-09-09T03:47:01.449Z,10.4
2018-09-09T03:52:01.394Z,11.0
2018-09-09T03:57:01.448Z,10.7
2018-09-09T04:02:01.391Z,10.5
2018-09-09T04:07:01.445Z,10.4
2018-09-09T04:12:01.396Z,10.6
2018-09-09T04:18:01.514Z,10.7
2018-09-09T04:23:01.384Z,11.3
2018-09-09T04:28:01.381Z,11.8
2018-09-09T04:33:01.361Z,12.2
2018-09-09T04:38:01.414Z,12.2
2018-09-09T04:43:01.349Z,12.8
2018-09-09T04:48:01.437Z,12.8
2018-09-09T04:53:01.387Z,13.2
2018-09-09T04:58:01.383Z,13.6
2018-09-09T05:03:01.354Z,14.1
2018-09-09T05:08:01.427Z,14.2
2018-09-09T05:13:01.389Z,14.7
2018-09-09T05:18:01.451Z,15.1
2018-09-09T05:23:01.394Z,14.6
2018-09-09T05:28:01.529Z,15.0
2018-09-09T05:33:01.378Z,15.0
2018-09-09T05:38:01.443Z,14.8
2018-09-09T05:43:01.350Z,14.6
2018-09-09T05:48:01.439Z,15.5
2018-09-09T05:58:01.380Z,16.1
2018-09-09T06:03:01.388Z,15.8
2018-09-09T06:08:01.383Z,16.0
2018-09-09T06:13:01.408Z,15.8
2018-09-09T06:18:01.455Z,15.8
2018-09-09T06:23:01.387Z,15.2
2018-09-09T06:28:01.451Z,15.7
2018-09-09T06:33:01.384Z,15.8
2018-09-09T06:38:01.518Z,15.7
2018-09-09T06:43:01.390Z,15.7
2018-09-09T06:48:01.511Z,15.8
2018-09-09T06:53:01.349Z,15.8
2018-09-09T06:58:01.451Z,15.7
2018-09-09T07:03:01.390Z,15.6
2018-09-09T07:08:01.388Z,15.8
2018-09-09T07:13:01.359Z,15.6
2018-09-09T07:18:01.384Z,15.7
2018-09-09T07:23:01.333Z,15.6
2018-09-09T07:28:01.394Z,15.7
2018-09-09T07:33:01.401Z,15.3
2018-09-09T07:38:01.441Z,16.0
2018-09-09T07:43:01.347Z,15.8
2018-09-09T07:48:01.694Z,15.5
2018-09-09T07:53:01.381Z,15.0
2018-09-09T07:58:01.372Z,14.8
2018-09-09T08:03:01.381Z,14.3
2018-09-09T08:08:01.443Z,13.9
2018-09-09T08:13:01.386Z,14.0
2018-09-09T08:18:01.389Z,14.6
2018-09-09T08:23:01.387Z,14.7
2018-09-09T08:28:01.506Z,14.4
2018-09-09T08:33:01.382Z,15.3
2018-09-09T08:38:01.453Z,15.6
2018-09-09T08:43:01.384Z,15.3
2018-09-09T08:48:01.455Z,16.0
2018-09-09T08:53:06.400Z,16.6
2018-09-09T08:58:01.546Z,16.3
2018-09-09T09:03:01.399Z,16.1
2018-09-09T09:08:01.766Z,16.1
2018-09-09T09:13:01.373Z,15.4
2018-09-09T09:23:01.510Z,16.1
2018-09-09T09:28:01.446Z,16.2
2018-09-09T09:33:01.399Z,16.3
2018-09-09T09:38:01.544Z,17.0
2018-09-09T09:43:01.393Z,17.3
2018-09-09T09:48:01.469Z,17.0
2018-09-09T09:53:01.428Z,17.4
2018-09-09T09:58:01.469Z,17.4
2018-09-09T10:03:01.382Z,17.6
2018-09-09T10:08:01.377Z,17.4
2018-09-09T10:13:01.382Z,16.8
2018-09-09T10:18:01.509Z,16.2
2018-09-09T10:23:01.385Z,15.9
2018-09-09T10:28:01.384Z,16.0
2018-09-09T10:33:01.387Z,16.3
2018-09-09T10:38:01.453Z,16.9
2018-09-09T10:43:01.396Z,16.6
2018-09-09T10:48:01.527Z,16.2
2018-09-09T10:53:01.553Z,15.0
2018-09-09T10:58:01.481Z,13.6
2018-09-09T11:04:01.375Z,12.2
2018-09-09T11:09:01.440Z,11.2
2018-09-09T11:14:01.389Z,10.4
2018-09-09T11:19:01.593Z,10.0
2018-09-09T11:24:01.643Z,9.5
2018-09-09T11:29:01.524Z,9.3
2018-09-09T11:34:01.389Z,9.5
2018-09-09T11:39:01.459Z,9.2
2018-09-09T11:44:06.404Z,8.6
2018-09-09T11:49:01.527Z,8.2
2018-09-09T11:54:01.382Z,8.0
2018-09-09T11:59:01.509Z,7.2
2018-09-09T12:04:01.379Z,6.6
2018-09-09T12:09:01.448Z,6.1
2018-09-09T12:14:06.397Z,5.4
2018-09-09T12:19:06.460Z,4.5
2018-09-09T12:24:01.411Z,4.1
2018-09-09T12:29:01.398Z,3.8
2018-09-09T12:34:01.387Z,3.4
2018-09-09T12:44:01.452Z,3.4
2018-09-09T12:49:01.383Z,3.2
2018-09-09T12:54:01.377Z,3.2
2018-09-09T12:59:01.345Z,3.1
2018-09-09T13:04:01.379Z,2.7
2018-09-09T13:09:01.377Z,2.5
2018-09-09T13:14:01.413Z,2.3
2018-09-09T13:19:01.351Z,2.1
2018-09-09T13:24:01.356Z,1.9
2018-09-09T13:29:01.448Z,2.1
2018-09-09T13:39:01.464Z,2.3
2018-09-09T13:44:01.390Z,2.1
2018-09-09T13:49:06.543Z,2.1
2018-09-09T13:54:01.423Z,1.7
2018-09-09T13:59:06.448Z,1.3
2018-09-09T14:04:06.396Z,1.1
2018-09-09T14:09:01.524Z,1.1
2018-09-09T14:14:01.363Z,1.0
2018-09-09T14:19:01.523Z,1.0
2018-09-09T14:24:01.377Z,1.2
2018-09-09T14:29:01.533Z,1.3
2018-09-09T14:34:01.383Z,1.3
2018-09-09T14:44:01.404Z,2.0
2018-09-09T14:54:06.454Z,2.3
2018-09-09T14:59:06.518Z,2.7
2018-09-09T15:04:06.405Z,2.8
2018-09-09T15:09:01.432Z,2.9
2018-09-09T15:14:06.393Z,3.0
2018-09-09T15:19:06.401Z,3.3
2018-09-09T15:29:01.546Z,3.2
2018-09-09T15:34:06.376Z,3.1
2018-09-09T15:40:01.890Z,3.0
2018-09-09T15:45:01.472Z,2.9
2018-09-09T15:50:01.482Z,3.2
2018-09-09T15:55:01.420Z,3.4
2018-09-09T16:00:01.547Z,3.5
2018-09-09T16:05:01.419Z,3.3
2018-09-09T16:10:01.419Z,3.1
2018-09-09T16:15:06.395Z,2.7
2018-09-09T16:20:01.490Z,2.5
2018-09-09T16:30:01.395Z,2.6
2018-09-09T16:35:01.383Z,2.5
2018-09-09T16:45:01.447Z,2.2
2018-09-09T16:55:01.467Z,2.1
2018-09-09T17:00:01.465Z,2.4
2018-09-09T17:05:06.389Z,2.6
2018-09-09T17:10:06.459Z,3.0
2018-09-09T17:15:06.405Z,3.0
2018-09-09T17:20:06.445Z,3.2
2018-09-09T17:30:01.533Z,3.4
2018-09-09T17:40:01.461Z,3.5
2018-09-09T17:45:01.393Z,3.6
2018-09-09T17:50:01.444Z,3.4
2018-09-09T17:55:01.393Z,3.4
2018-09-09T18:00:01.541Z,3.6
2018-09-09T18:10:01.489Z,4.0
2018-09-09T18:15:01.416Z,4.2
2018-09-09T18:20:01.424Z,4.2
2018-09-09T18:25:01.428Z,4.4
2018-09-09T18:30:01.428Z,4.6
2018-09-09T18:40:06.581Z,4.9
2018-09-09T18:45:06.697Z,5.3
2018-09-09T18:50:06.687Z,5.4
2018-09-09T19:00:06.949Z,5.6
2018-09-09T19:05:01.421Z,5.9
2018-09-09T19:10:01.467Z,6.1
2018-09-09T19:15:06.392Z,6.6
2018-09-09T19:20:01.499Z,7.4
2018-09-09T19:25:06.399Z,8.0
2018-09-09T19:30:01.456Z,8.4
2018-09-09T19:35:01.428Z,9.1
2018-09-09T19:40:01.453Z,9.3
2018-09-09T19:45:01.383Z,9.5
2018-09-09T19:50:01.509Z,9.5
2018-09-09T19:55:06.380Z,9.6
2018-09-09T20:00:01.473Z,9.3
2018-09-09T20:05:01.378Z,9.3
2018-09-09T20:10:01.452Z,9.3
2018-09-09T20:15:01.492Z,9.7
2018-09-09T20:20:01.382Z,10.3
2018-09-09T20:30:01.515Z,11.1
2018-09-09T20:35:01.357Z,11.7
2018-09-09T20:40:01.455Z,11.7
2018-09-09T20:45:01.394Z,11.6
2018-09-09T20:50:01.459Z,11.8
2018-09-09T20:55:01.397Z,11.9
2018-09-09T21:00:06.524Z,11.5
2018-09-09T21:05:01.431Z,11.5
2018-09-09T21:10:01.479Z,11.1
2018-09-09T21:15:01.403Z,10.8
2018-09-09T21:20:01.581Z,11.0
2018-09-09T21:25:01.420Z,10.9
2018-09-09T21:30:06.444Z,10.6
2018-09-09T21:35:06.395Z,11.1
2018-09-09T21:40:06.519Z,11.5
2018-09-09T21:45:06.396Z,11.2
2018-09-09T21:50:01.455Z,11.5
2018-09-09T22:00:01.486Z,12.0
2018-09-09T22:05:06.380Z,11.8
2018-09-09T22:10:06.385Z,11.9
2018-09-09T22:15:06.382Z,11.5
2018-09-09T22:20:01.468Z,11.2
2018-09-09T22:25:01.404Z,11.0
2018-09-09T22:30:06.380Z,10.9
2018-09-09T22:35:06.505Z,10.6
2018-09-09T22:40:06.381Z,10.4
2018-09-09T22:45:06.383Z,10.4
2018-09-09T22:50:06.384Z,10.4
2018-09-09T22:55:01.423Z,9.8
2018-09-09T23:00:01.480Z,9.6
2018-09-09T23:05:01.428Z,9.4
2018-09-09T23:10:01.449Z,9.0
2018-09-09T23:15:01.428Z,8.5
2018-09-09T23:20:01.522Z,8.3
2018-09-09T23:25:01.427Z,8.0
2018-09-09T23:30:01.492Z,8.0
2018-09-09T23:35:01.416Z,8.0
2018-09-09T23:40:01.498Z,8.0
2018-09-09T23:45:01.400Z,8.0
2018-09-09T23:50:01.447Z,8.0
2018-09-09T23:55:01.378Z,7.9
